Time;durP1;ratioP1;P1;durP2;ratioP2;P2;SDS_P1;SDS_P2;PMS_P1;PMS_P2;Temp;Humidity;BMP_temperature;BMP_pressure;BME280_temperature;BME280_humidity;BME280_pressure;Samples;Min_cycle;Max_cycle;Signal;HPM_P1;HPM_P2
2023/06/23 00:01:41;;;;;;;1.53;0.93;;;18.00;98.20;;;;;;4979014;28;20481;-83
2023/06/23 00:04:07;;;;;;;1.53;0.90;;;18.00;98.20;;;;;;4987271;28;20454;-81
2023/06/23 00:06:34;;;;;;;1.50;0.90;;;18.00;98.20;;;;;;4985600;28;20990;-81
2023/06/23 00:09:13;;;;;;;1.50;1.00;;;18.00;98.20;;;;;;4993160;28;20468;-81
2023/06/23 00:11:40;;;;;;;1.50;0.90;;;18.00;98.20;;;;;;4986122;28;20512;-82
2023/06/23 00:14:07;;;;;;;1.53;0.90;;;18.00;98.20;;;;;;4994253;28;20492;-82
2023/06/23 00:16:36;;;;;;;1.50;0.90;;;18.00;98.20;;;;;;4982089;28;20491;-82
2023/06/23 00:19:03;;;;;;;1.57;0.90;;;18.00;98.20;;;;;;4986784;28;20462;-81
2023/06/23 00:21:30;;;;;;;1.53;1.00;;;18.00;98.20;;;;;;4985163;28;20495;-81
2023/06/23 00:23:57;;;;;;;1.53;1.00;;;18.00;98.20;;;;;;4992804;28;20500;-82
2023/06/23 00:26:25;;;;;;;1.50;0.97;;;18.00;98.20;;;;;;4984757;28;20484;-81
2023/06/23 00:28:51;;;;;;;1.50;0.90;;;18.00;98.20;;;;;;4991775;28;20469;-81
2023/06/23 00:31:18;;;;;;;1.50;1.00;;;18.00;98.20;;;;;;4987773;28;20480;-82
2023/06/23 00:33:45;;;;;;;1.53;1.00;;;18.00;98.20;;;;;;4986831;28;20850;-82
2023/06/23 00:36:11;;;;;;;1.53;0.90;;;18.00;98.20;;;;;;4982351;28;20484;-82
2023/06/23 00:38:38;;;;;;;1.50;0.90;;;18.00;98.20;;;;;;4991192;28;20470;-82
2023/06/23 00:41:05;;;;;;;1.50;0.90;;;18.00;98.20;;;;;;4982959;28;20457;-82
2023/06/23 00:43:34;;;;;;;1.50;0.90;;;18.00;98.20;;;;;;4992907;28;20464;-82
2023/06/23 00:46:07;;;;;;;1.57;0.90;;;17.90;98.20;;;;;;4977589;28;20862;-82
2023/06/23 00:48:34;;;;;;;5.83;2.60;;;17.90;98.20;;;;;;5002138;28;20464;-83
2023/06/23 00:51:01;;;;;;;1.50;1.00;;;17.80;98.20;;;;;;4994604;28;20994;-81
2023/06/23 00:53:28;;;;;;;1.50;0.93;;;17.80;98.20;;;;;;4990355;28;20475;-81
2023/06/23 00:55:55;;;;;;;1.53;1.00;;;17.80;98.20;;;;;;4982771;28;20500;-81
2023/06/23 00:58:21;;;;;;;1.53;1.00;;;17.80;98.20;;;;;;4994767;28;20855;-82
2023/06/23 01:00:51;;;;;;;1.50;1.00;;;17.80;98.20;;;;;;4987155;28;20469;-81
2023/06/23 01:03:17;;;;;;;1.60;1.10;;;17.80;98.20;;;;;;4987790;28;20607;-82
2023/06/23 01:05:47;;;;;;;1.60;1.00;;;17.80;98.20;;;;;;4991663;28;20481;-82
2023/06/23 01:08:25;;;;;;;1.57;1.10;;;17.80;98.20;;;;;;4968889;28;20477;-82
2023/06/23 01:10:57;;;;;;;1.50;0.90;;;17.70;98.20;;;;;;4976728;28;20472;-82
2023/06/23 01:13:32;;;;;;;1.60;1.00;;;17.70;98.20;;;;;;4993962;28;20465;-82
2023/06/23 01:16:06;;;;;;;2.00;1.80;;;17.70;98.20;;;;;;4976688;28;20591;-81
2023/06/23 01:18:44;;;;;;;1.50;0.97;;;17.70;98.20;;;;;;4989477;28;20474;-82
2023/06/23 01:21:14;;;;;;;1.50;0.90;;;17.70;98.20;;;;;;4966869;28;20477;-81
2023/06/23 01:24:05;;;;;;;1.50;1.00;;;17.70;98.20;;;;;;4977967;28;20472;-81
2023/06/23 01:27:04;;;;;;;1.50;0.90;;;17.70;98.20;;;;;;4973628;28;20481;-81
2023/06/23 01:29:36;;;;;;;1.50;0.90;;;17.70;98.20;;;;;;4990581;28;20461;-81
2023/06/23 01:32:10;;;;;;;1.50;1.00;;;17.70;98.20;;;;;;4982041;28;20516;-81
2023/06/23 01:34:40;;;;;;;1.53;1.00;;;17.70;98.20;;;;;;4978680;28;20544;-81
2023/06/23 01:37:11;;;;;;;1.60;1.20;;;17.70;98.20;;;;;;4984199;28;20488;-80
2023/06/23 01:39:42;;;;;;;1.50;0.90;;;17.60;98.20;;;;;;4984509;28;20457;-80
2023/06/23 01:42:12;;;;;;;1.50;0.90;;;17.60;98.20;;;;;;4978044;28;20480;-79
2023/06/23 01:44:45;;;;;;;1.50;1.00;;;17.60;98.20;;;;;;4981828;28;20493;-82
2023/06/23 01:47:17;;;;;;;1.50;1.00;;;17.60;98.20;;;;;;4979956;28;20496;-80
2023/06/23 01:49:46;;;;;;;1.57;1.00;;;17.60;98.20;;;;;;4983110;28;20461;-80
2023/06/23 01:52:14;;;;;;;1.50;0.97;;;17.60;98.20;;;;;;4982560;28;20485;-80
2023/06/23 01:54:42;;;;;;;1.60;1.00;;;17.60;98.20;;;;;;4985486;28;20489;-79
2023/06/23 01:57:12;;;;;;;1.50;0.90;;;17.60;98.20;;;;;;4973539;28;21015;-80
2023/06/23 01:59:43;;;;;;;1.60;1.00;;;17.60;98.20;;;;;;4985840;28;20456;-78
2023/06/23 02:02:11;;;;;;;1.53;1.00;;;17.60;98.20;;;;;;4972500;28;20496;-79
2023/06/23 02:04:41;;;;;;;1.60;1.00;;;17.60;98.20;;;;;;4979735;28;20466;-79
2023/06/23 02:07:08;;;;;;;1.50;0.90;;;17.50;98.20;;;;;;4972232;28;21039;-79
2023/06/23 02:09:36;;;;;;;1.53;0.97;;;17.60;98.20;;;;;;4978155;28;20485;-79
2023/06/23 02:12:06;;;;;;;1.50;1.00;;;17.50;98.20;;;;;;4974345;28;20501;-79
2023/06/23 02:14:35;;;;;;;1.50;0.90;;;17.50;98.20;;;;;;4982356;28;20509;-79
2023/06/23 02:17:05;;;;;;;1.60;1.17;;;17.50;98.20;;;;;;4981956;28;20491;-79
2023/06/23 02:19:33;;;;;;;1.60;1.10;;;17.50;98.20;;;;;;4991095;28;20488;-78
2023/06/23 02:22:01;;;;;;;1.53;0.90;;;17.50;98.20;;;;;;4989024;28;21032;-79
2023/06/23 02:24:28;;;;;;;1.50;0.93;;;17.50;98.20;;;;;;4991374;28;20458;-79
2023/06/23 02:26:56;;;;;;;1.50;0.90;;;17.50;98.20;;;;;;4981504;28;20896;-79
2023/06/23 02:29:24;;;;;;;1.50;1.00;;;17.50;98.20;;;;;;4990660;28;20466;-79
2023/06/23 02:31:51;;;;;;;1.53;1.00;;;17.50;98.20;;;;;;4984836;28;20484;-79
2023/06/23 02:34:19;;;;;;;1.50;0.90;;;17.50;98.20;;;;;;4984442;28;20488;-79
2023/06/23 02:36:49;;;;;;;1.50;1.00;;;17.50;98.20;;;;;;4979791;28;21312;-78
2023/06/23 02:39:19;;;;;;;1.60;1.00;;;17.50;98.20;;;;;;4986119;28;20468;-79
2023/06/23 02:41:50;;;;;;;1.50;0.90;;;17.50;98.20;;;;;;4976759;28;20489;-78
2023/06/23 02:44:21;;;;;;;1.60;1.00;;;17.50;98.20;;;;;;4985346;28;20467;-79
2023/06/23 02:46:56;;;;;;;1.50;1.00;;;17.50;98.20;;;;;;4983997;28;20492;-80
2023/06/23 02:49:28;;;;;;;1.53;1.00;;;17.50;98.20;;;;;;4991548;28;20478;-79
2023/06/23 02:51:59;;;;;;;1.50;0.90;;;17.50;98.20;;;;;;4982096;28;20507;-79
2023/06/23 02:54:31;;;;;;;1.57;0.93;;;17.50;98.20;;;;;;4986742;28;20458;-79
2023/06/23 02:56:59;;;;;;;1.53;0.90;;;17.50;98.20;;;;;;4983952;28;20560;-78
2023/06/23 02:59:28;;;;;;;1.53;0.90;;;17.50;98.20;;;;;;4986449;28;20465;-78
2023/06/23 03:01:57;;;;;;;1.50;1.00;;;17.50;98.20;;;;;;4980853;28;20515;-78
2023/06/23 03:04:25;;;;;;;1.60;1.00;;;17.60;98.20;;;;;;4986103;28;20952;-79
2023/06/23 03:06:53;;;;;;;1.50;0.93;;;17.50;98.20;;;;;;4978946;28;20489;-79
2023/06/23 03:09:20;;;;;;;1.53;1.00;;;17.50;98.20;;;;;;4981715;28;20513;-80
2023/06/23 03:11:47;;;;;;;1.57;1.00;;;17.50;98.20;;;;;;4979161;28;20470;-79
2023/06/23 03:14:13;;;;;;;1.60;0.90;;;17.40;98.20;;;;;;4975124;28;21115;-79
2023/06/23 03:16:46;;;;;;;1.50;1.00;;;17.40;98.20;;;;;;4979017;28;20495;-80
2023/06/23 03:19:23;;;;;;;1.50;1.00;;;17.40;98.20;;;;;;4990414;28;20462;-79
2023/06/23 03:21:59;;;;;;;1.60;1.20;;;17.40;98.20;;;;;;4977791;28;20492;-80
2023/06/23 03:24:30;;;;;;;1.60;1.20;;;17.40;98.20;;;;;;4987654;28;20452;-81
2023/06/23 03:26:59;;;;;;;1.50;1.00;;;17.40;98.20;;;;;;4983005;28;20563;-80
2023/06/23 03:29:30;;;;;;;1.57;1.00;;;17.40;98.20;;;;;;4990303;28;20453;-79
2023/06/23 03:32:03;;;;;;;1.57;1.00;;;17.40;98.20;;;;;;4981185;28;20494;-79
2023/06/23 03:34:40;;;;;;;1.50;0.90;;;17.40;98.20;;;;;;4985516;28;20489;-80
2023/06/23 03:37:10;;;;;;;1.53;0.90;;;17.40;98.20;;;;;;4976322;28;20485;-78
2023/06/23 03:39:40;;;;;;;1.60;1.10;;;17.40;98.20;;;;;;4984887;28;20472;-78
2023/06/23 03:42:07;;;;;;;1.57;0.97;;;17.40;98.20;;;;;;4978538;28;20705;-80
2023/06/23 03:44:40;;;;;;;1.50;0.97;;;17.40;98.20;;;;;;4989648;28;20496;-79
2023/06/23 03:47:13;;;;;;;1.53;1.00;;;17.40;98.20;;;;;;4976466;28;20850;-79
2023/06/23 03:49:45;;;;;;;2.00;1.57;;;17.40;98.20;;;;;;4982166;28;20461;-80
2023/06/23 03:52:15;;;;;;;1.60;1.00;;;17.40;98.20;;;;;;4981072;28;20493;-79
2023/06/23 03:54:43;;;;;;;1.60;1.00;;;17.40;98.20;;;;;;4988456;28;20520;-80
2023/06/23 03:57:14;;;;;;;1.50;1.00;;;17.40;98.20;;;;;;4982217;28;20480;-80
2023/06/23 03:59:42;;;;;;;1.53;1.00;;;17.40;98.20;;;;;;4990811;28;20495;-81
2023/06/23 04:02:12;;;;;;;1.60;1.20;;;17.40;98.20;;;;;;4981064;28;20481;-79
2023/06/23 04:04:40;;;;;;;1.60;0.90;;;17.40;98.20;;;;;;4988516;28;20462;-81
2023/06/23 04:07:10;;;;;;;1.57;0.93;;;17.40;98.20;;;;;;4979736;28;20491;-79
2023/06/23 04:09:44;;;;;;;1.50;1.00;;;17.40;98.20;;;;;;4990078;28;20469;-79
2023/06/23 04:12:14;;;;;;;1.50;0.93;;;17.40;98.20;;;;;;4973699;28;20515;-78
2023/06/23 04:14:44;;;;;;;1.60;1.10;;;17.40;98.20;;;;;;4989792;28;20471;-79
2023/06/23 04:17:13;;;;;;;1.50;1.00;;;17.40;98.20;;;;;;4971595;28;20568;-79
2023/06/23 04:19:43;;;;;;;1.57;1.00;;;17.40;98.20;;;;;;4987657;28;20468;-79
2023/06/23 04:22:14;;;;;;;1.60;1.30;;;17.40;98.20;;;;;;4977279;28;20511;-78
2023/06/23 04:24:42;;;;;;;1.50;0.90;;;17.40;98.20;;;;;;4990393;28;20881;-80
2023/06/23 04:27:13;;;;;;;1.50;1.00;;;17.40;98.20;;;;;;4975149;28;20754;-78
2023/06/23 04:29:42;;;;;;;1.53;1.00;;;17.40;98.20;;;;;;4991980;28;20462;-79
2023/06/23 04:32:11;;;;;;;1.50;0.90;;;17.50;98.20;;;;;;4977858;28;20493;-79
2023/06/23 04:34:38;;;;;;;1.53;1.00;;;17.50;98.20;;;;;;4987975;28;20477;-79
2023/06/23 04:37:12;;;;;;;1.50;1.00;;;17.50;98.20;;;;;;4977350;28;20489;-78
2023/06/23 04:39:46;;;;;;;1.57;1.00;;;17.50;98.20;;;;;;4989598;28;20538;-79
2023/06/23 04:42:16;;;;;;;1.53;0.97;;;17.50;98.20;;;;;;4985133;28;20492;-79
2023/06/23 04:44:49;;;;;;;1.50;0.90;;;17.60;98.20;;;;;;4990514;28;20504;-79
2023/06/23 04:47:20;;;;;;;1.57;1.00;;;17.60;98.20;;;;;;4972928;28;20485;-79
2023/06/23 04:49:50;;;;;;;1.60;1.00;;;17.60;98.20;;;;;;4984832;28;20465;-78
2023/06/23 04:52:19;;;;;;;1.60;1.10;;;17.60;98.20;;;;;;4976404;28;20484;-79
2023/06/23 04:54:49;;;;;;;2.90;1.40;;;17.70;98.20;;;;;;4997240;28;20484;-79
2023/06/23 04:57:18;;;;;;;1.50;1.00;;;17.70;98.20;;;;;;4975010;28;21003;-79
2023/06/23 04:59:51;;;;;;;1.50;1.00;;;17.70;98.20;;;;;;4996132;28;20456;-78
2023/06/23 05:02:20;;;;;;;1.50;0.90;;;17.80;98.20;;;;;;4982621;28;21099;-78
2023/06/23 05:04:50;;;;;;;1.50;0.90;;;17.80;98.20;;;;;;4990903;28;21046;-78
2023/06/23 05:07:19;;;;;;;1.50;1.00;;;17.90;98.20;;;;;;4981271;28;20481;-79
2023/06/23 05:09:52;;;;;;;1.50;1.00;;;17.90;98.20;;;;;;4992460;28;20471;-79
2023/06/23 05:12:21;;;;;;;1.50;1.00;;;18.00;98.20;;;;;;4983315;28;20481;-78
2023/06/23 05:14:50;;;;;;;1.53;0.93;;;18.00;98.20;;;;;;4993428;28;20480;-79
2023/06/23 05:17:18;;;;;;;1.60;1.10;;;18.00;98.20;;;;;;4970416;28;20485;-78
2023/06/23 05:19:48;;;;;;;1.53;0.97;;;18.00;98.20;;;;;;4988720;28;20845;-78
2023/06/23 05:22:18;;;;;;;1.50;0.90;;;18.00;98.20;;;;;;4982238;28;20504;-78
2023/06/23 05:24:50;;;;;;;1.50;1.00;;;18.00;98.20;;;;;;4995918;28;20456;-79
2023/06/23 05:27:20;;;;;;;1.53;1.10;;;18.00;98.20;;;;;;4971623;28;20909;-78
2023/06/23 05:29:49;;;;;;;1.50;1.00;;;18.00;98.20;;;;;;4994215;28;20465;-80
2023/06/23 05:32:19;;;;;;;1.50;0.90;;;18.10;98.20;;;;;;4976184;28;21023;-79
2023/06/23 05:34:48;;;;;;;1.50;0.90;;;18.10;98.20;;;;;;4986549;28;20495;-79
2023/06/23 05:37:17;;;;;;;1.53;0.90;;;18.10;98.20;;;;;;4971661;28;20873;-78
2023/06/23 05:39:46;;;;;;;1.57;1.00;;;18.10;98.20;;;;;;4994780;28;20488;-79
2023/06/23 05:42:14;;;;;;;1.53;1.10;;;18.10;98.20;;;;;;4987609;28;21007;-78
2023/06/23 05:44:41;;;;;;;1.50;0.93;;;18.20;98.20;;;;;;4993824;28;20476;-79
2023/06/23 05:47:13;;;;;;;1.50;0.93;;;18.30;98.20;;;;;;4980262;28;20492;-78
2023/06/23 05:49:43;;;;;;;1.60;1.00;;;18.40;98.20;;;;;;4990557;28;20469;-79
2023/06/23 05:52:15;;;;;;;1.50;0.97;;;18.40;98.20;;;;;;4979940;28;20485;-79
2023/06/23 05:54:45;;;;;;;1.53;0.97;;;18.40;98.20;;;;;;4992373;28;20979;-79
2023/06/23 05:57:20;;;;;;;1.53;1.00;;;18.50;98.20;;;;;;4983950;28;20487;-79
2023/06/23 05:59:55;;;;;;;1.50;0.90;;;18.60;98.20;;;;;;4992226;28;20466;-78
2023/06/23 06:02:25;;;;;;;1.80;1.57;;;18.60;98.20;;;;;;4982497;28;20491;-78
2023/06/23 06:04:57;;;;;;;1.60;1.10;;;18.60;98.20;;;;;;4996673;28;20572;-78
2023/06/23 06:07:25;;;;;;;1.50;1.00;;;18.80;98.20;;;;;;4971289;28;20485;-79
2023/06/23 06:09:53;;;;;;;1.50;0.90;;;18.80;98.20;;;;;;4985760;28;20478;-78
2023/06/23 06:12:23;;;;;;;1.57;1.00;;;18.90;98.20;;;;;;4981580;28;20525;-77
2023/06/23 06:14:52;;;;;;;1.53;0.97;;;18.90;98.20;;;;;;4989581;28;20536;-77
2023/06/23 06:17:21;;;;;;;1.57;1.00;;;19.00;98.20;;;;;;4980100;28;20536;-77
2023/06/23 06:19:50;;;;;;;1.60;1.20;;;19.00;98.20;;;;;;4988739;28;20492;-78
2023/06/23 06:22:19;;;;;;;1.53;0.90;;;19.00;98.20;;;;;;4979064;28;20492;-77
2023/06/23 06:24:48;;;;;;;1.50;0.90;;;19.10;98.20;;;;;;4991360;28;20988;-78
2023/06/23 06:27:17;;;;;;;1.50;0.93;;;19.10;98.20;;;;;;4977761;28;20492;-78
2023/06/23 06:29:48;;;;;;;1.50;0.90;;;19.10;98.20;;;;;;4992978;28;20582;-78
2023/06/23 06:32:17;;;;;;;1.50;1.00;;;19.20;98.20;;;;;;4981786;28;20468;-77
2023/06/23 06:34:46;;;;;;;1.50;0.90;;;19.20;98.20;;;;;;4991967;28;20457;-77
2023/06/23 06:37:15;;;;;;;2.53;1.97;;;19.30;98.20;;;;;;4983067;28;20481;-76
2023/06/23 06:39:43;;;;;;;1.80;1.40;;;19.30;98.20;;;;;;4990636;28;20531;-76
2023/06/23 06:42:10;;;;;;;1.50;1.00;;;19.30;98.20;;;;;;4980927;28;20776;-76
2023/06/23 06:44:38;;;;;;;1.50;0.90;;;19.40;98.20;;;;;;4991711;28;20513;-77
2023/06/23 06:47:10;;;;;;;1.57;1.00;;;19.50;98.20;;;;;;4977702;28;20803;-77
2023/06/23 06:49:37;;;;;;;1.53;0.90;;;19.50;98.20;;;;;;4988794;28;20461;-77
2023/06/23 06:52:06;;;;;;;1.60;1.10;;;19.60;98.20;;;;;;4978604;28;20565;-77
2023/06/23 06:54:34;;;;;;;1.50;0.90;;;19.70;98.20;;;;;;4988986;28;20468;-77
2023/06/23 06:57:01;;;;;;;1.50;1.00;;;19.80;98.20;;;;;;4982839;28;20767;-77
2023/06/23 06:59:29;;;;;;;1.50;0.90;;;19.90;98.20;;;;;;4986962;28;20883;-77
2023/06/23 07:01:57;;;;;;;1.53;1.00;;;20.10;98.20;;;;;;4976273;28;20490;-77
2023/06/23 07:04:27;;;;;;;1.50;0.90;;;20.30;98.20;;;;;;4984570;28;20873;-77
2023/06/23 07:06:55;;;;;;;2.03;1.47;;;20.50;98.20;;;;;;4974353;28;20501;-76
2023/06/23 07:09:22;;;;;;;1.50;0.90;;;20.60;98.20;;;;;;4986928;28;20552;-76
2023/06/23 07:11:50;;;;;;;1.53;0.90;;;20.70;98.20;;;;;;4973772;28;20491;-78
2023/06/23 07:14:18;;;;;;;1.50;0.90;;;20.70;98.20;;;;;;4983696;28;20469;-77
2023/06/23 07:16:46;;;;;;;1.50;0.90;;;20.70;98.20;;;;;;4973357;28;20930;-77
2023/06/23 07:19:14;;;;;;;1.50;0.90;;;20.80;98.20;;;;;;4985147;28;20500;-78
2023/06/23 07:21:44;;;;;;;1.50;0.90;;;20.80;98.20;;;;;;4977447;28;21072;-78
2023/06/23 07:24:12;;;;;;;1.60;1.00;;;20.90;98.20;;;;;;4985347;28;20465;-79
2023/06/23 07:26:40;;;;;;;1.53;1.00;;;21.00;98.20;;;;;;4975608;28;20577;-79
2023/06/23 07:29:09;;;;;;;1.57;0.90;;;21.10;98.20;;;;;;4985910;28;20460;-79
2023/06/23 07:31:42;;;;;;;1.57;0.90;;;21.20;98.20;;;;;;4977082;28;20702;-78
2023/06/23 07:34:13;;;;;;;1.53;0.90;;;21.30;98.20;;;;;;4987181;28;21035;-79
2023/06/23 07:36:44;;;;;;;1.50;1.00;;;21.20;98.20;;;;;;4975550;28;20583;-78
2023/06/23 07:39:12;;;;;;;1.50;0.90;;;21.20;98.20;;;;;;4989269;28;21014;-79
2023/06/23 07:41:41;;;;;;;1.50;0.90;;;21.40;98.20;;;;;;4964836;28;20477;-79
2023/06/23 07:44:10;;;;;;;1.50;0.90;;;21.50;98.20;;;;;;4981491;28;20482;-79
2023/06/23 07:46:38;;;;;;;1.50;0.90;;;21.90;98.20;;;;;;4983128;28;20492;-79
2023/06/23 07:49:05;;;;;;;1.50;0.87;;;22.20;98.20;;;;;;4992335;28;20456;-79
2023/06/23 07:51:34;;;;;;;1.80;1.37;;;22.40;98.20;;;;;;4978859;28;20489;-79
2023/06/23 07:54:03;;;;;;;1.50;0.83;;;22.60;98.20;;;;;;4987416;28;20934;-80
2023/06/23 07:56:32;;;;;;;1.53;0.90;;;22.80;98.20;;;;;;4976178;28;20485;-78
2023/06/23 07:59:00;;;;;;;1.53;0.90;;;23.00;98.20;;;;;;4984953;28;21218;-76
2023/06/23 08:01:28;;;;;;;1.50;0.90;;;23.10;98.20;;;;;;4973056;28;20495;-76
2023/06/23 08:03:55;;;;;;;1.53;0.90;;;23.30;98.20;;;;;;4983317;28;20469;-76
2023/06/23 08:06:24;;;;;;;1.50;0.90;;;23.50;98.20;;;;;;4972641;28;20489;-78
2023/06/23 08:08:52;;;;;;;1.50;0.90;;;23.70;98.20;;;;;;4981307;28;20470;-77
2023/06/23 08:11:26;;;;;;;1.50;0.90;;;23.80;98.20;;;;;;4967309;28;21094;-77
2023/06/23 08:13:54;;;;;;;1.50;0.90;;;23.90;98.20;;;;;;4989430;28;20472;-77
2023/06/23 08:16:22;;;;;;;1.50;0.90;;;24.00;98.20;;;;;;4978104;28;20568;-77
2023/06/23 08:18:51;;;;;;;1.57;0.90;;;24.10;98.20;;;;;;4982748;28;20516;-77
2023/06/23 08:21:19;;;;;;;1.53;0.90;;;24.30;98.20;;;;;;4975183;28;21019;-77
2023/06/23 08:23:46;;;;;;;1.53;0.90;;;24.50;98.20;;;;;;4981808;28;20508;-77
2023/06/23 08:26:15;;;;;;;1.53;0.90;;;24.70;98.20;;;;;;4980708;28;21167;-77
2023/06/23 08:28:44;;;;;;;1.57;0.90;;;24.90;98.20;;;;;;4983678;28;20466;-76
2023/06/23 08:31:13;;;;;;;1.57;0.90;;;25.10;98.20;;;;;;4972302;28;21811;-77
2023/06/23 08:33:41;;;;;;;1.50;0.90;;;25.40;98.20;;;;;;4982353;28;20460;-77
2023/06/23 08:36:11;;;;;;;1.53;0.90;;;25.50;98.20;;;;;;4976759;28;21049;-77
2023/06/23 08:38:41;;;;;;;1.50;0.80;;;25.60;98.20;;;;;;4988211;28;20497;-78
2023/06/23 08:41:12;;;;;;;1.57;0.90;;;25.60;98.20;;;;;;4974477;28;20996;-78
2023/06/23 08:43:48;;;;;;;1.50;0.90;;;25.80;98.20;;;;;;4979344;28;20527;-78
2023/06/23 08:46:17;;;;;;;1.50;0.90;;;26.10;98.20;;;;;;4974717;28;20479;-78
2023/06/23 08:48:47;;;;;;;1.50;0.90;;;26.40;98.20;;;;;;4983107;28;20552;-77
2023/06/23 08:51:16;;;;;;;1.50;0.80;;;26.50;98.20;;;;;;4977033;28;20559;-77
2023/06/23 08:53:44;;;;;;;1.53;0.90;;;26.60;96.50;;;;;;4981408;28;20505;-78
2023/06/23 08:56:13;;;;;;;1.50;0.80;;;26.60;96.60;;;;;;4970038;28;20610;-78
2023/06/23 08:58:42;;;;;;;1.50;0.80;;;26.50;95.90;;;;;;4978999;28;20469;-78
2023/06/23 09:01:11;;;;;;;1.50;0.90;;;26.40;96.10;;;;;;4974175;28;20473;-77
2023/06/23 09:03:40;;;;;;;1.50;0.83;;;26.20;96.10;;;;;;4967492;28;20492;-77
2023/06/23 09:06:11;;;;;;;1.50;0.80;;;26.00;97.30;;;;;;4977346;28;20951;-78
2023/06/23 09:08:43;;;;;;;1.50;0.90;;;25.90;97.20;;;;;;4981648;28;20477;-77
2023/06/23 09:11:13;;;;;;;1.50;0.83;;;26.00;96.80;;;;;;4972194;28;20536;-77
2023/06/23 09:13:47;;;;;;;3.47;1.27;;;26.10;97.90;;;;;;4979547;28;20569;-78
2023/06/23 09:16:18;;;;;;;1.50;0.90;;;26.20;97.70;;;;;;4968309;28;20768;-78
2023/06/23 09:18:48;;;;;;;1.60;1.20;;;26.40;95.10;;;;;;4980839;28;20473;-78
2023/06/23 09:21:17;;;;;;;1.50;0.90;;;26.40;97.10;;;;;;4973159;28;20486;-77
2023/06/23 09:24:01;;;;;;;1.50;0.80;;;26.40;97.20;;;;;;4980985;28;20968;-77
2023/06/23 09:26:30;;;;;;;1.50;0.80;;;26.20;95.40;;;;;;4969518;28;20508;-77
2023/06/23 09:29:18;;;;;;;1.50;0.90;;;26.10;95.80;;;;;;4978768;28;20571;-77
2023/06/23 09:31:50;;;;;;;1.50;0.80;;;26.20;97.10;;;;;;4974534;28;20488;-78
2023/06/23 09:34:23;;;;;;;1.50;0.90;;;26.40;96.80;;;;;;4984894;28;20526;-77
2023/06/23 09:36:52;;;;;;;1.50;0.90;;;26.50;94.50;;;;;;4974485;28;20484;-77
2023/06/23 09:39:23;;;;;;;1.50;0.80;;;26.30;94.40;;;;;;4986505;28;20464;-77
2023/06/23 09:41:57;;;;;;;1.50;0.80;;;26.20;93.90;;;;;;4969847;28;20587;-77
2023/06/23 09:44:35;;;;;;;1.50;1.10;;;26.10;93.10;;;;;;4985058;28;20474;-77
2023/06/23 09:47:06;;;;;;;1.50;0.80;;;26.20;93.60;;;;;;4975356;28;20527;-76
2023/06/23 09:49:41;;;;;;;1.50;0.80;;;26.30;93.80;;;;;;4987385;28;20464;-77
2023/06/23 09:52:13;;;;;;;1.43;0.80;;;26.20;95.60;;;;;;4967709;28;20565;-77
2023/06/23 09:54:43;;;;;;;1.50;0.90;;;26.10;96.00;;;;;;4976153;28;21499;-76
2023/06/23 09:57:17;;;;;;;1.47;0.83;;;26.20;96.50;;;;;;4982931;28;20483;-77
2023/06/23 09:59:47;;;;;;;1.50;0.80;;;26.60;94.10;;;;;;4994569;28;20551;-77
2023/06/23 10:02:23;;;;;;;1.60;1.20;;;26.80;93.60;;;;;;4981238;28;21143;-77
2023/06/23 10:04:58;;;;;;;1.43;0.80;;;26.70;91.90;;;;;;4982566;28;20494;-77
2023/06/23 10:07:28;;;;;;;1.50;0.90;;;26.70;91.80;;;;;;4979881;28;20474;-76
2023/06/23 10:09:59;;;;;;;1.60;1.13;;;26.70;93.00;;;;;;4986153;28;20547;-77
2023/06/23 10:12:29;;;;;;;1.50;0.80;;;26.70;92.80;;;;;;4974714;28;20498;-77
2023/06/23 10:14:59;;;;;;;1.50;0.83;;;26.60;92.80;;;;;;4984444;28;20512;-77
2023/06/23 10:17:30;;;;;;;1.50;0.80;;;26.50;93.40;;;;;;4975157;28;20632;-77
2023/06/23 10:19:59;;;;;;;1.50;0.80;;;26.30;92.40;;;;;;4985099;28;20469;-77
2023/06/23 10:22:29;;;;;;;1.40;0.80;;;26.40;93.30;;;;;;4975055;28;20579;-78
2023/06/23 10:25:01;;;;;;;1.47;0.80;;;26.50;93.70;;;;;;4991861;28;20502;-77
2023/06/23 10:27:33;;;;;;;1.50;0.87;;;26.80;92.00;;;;;;4978400;28;20639;-77
2023/06/23 10:30:04;;;;;;;1.47;0.80;;;26.70;91.50;;;;;;4992728;28;20469;-78
2023/06/23 10:32:38;;;;;;;1.50;0.80;;;26.70;92.50;;;;;;4979158;28;20491;-78
2023/06/23 10:35:08;;;;;;;1.50;0.80;;;26.80;90.60;;;;;;4987200;28;20614;-77
2023/06/23 10:37:38;;;;;;;1.50;0.80;;;27.10;90.60;;;;;;4985293;28;21371;-78
2023/06/23 10:40:10;;;;;;;1.53;1.10;;;27.10;89.10;;;;;;4986122;28;20463;-78
2023/06/23 10:42:43;;;;;;;1.50;0.80;;;27.30;88.00;;;;;;4974651;28;20486;-77
2023/06/23 10:45:12;;;;;;;1.50;0.80;;;27.50;84.30;;;;;;4987639;28;20489;-78
2023/06/23 10:47:44;;;;;;;1.60;1.00;;;27.60;87.90;;;;;;4979961;28;20994;-79
2023/06/23 10:50:14;;;;;;;1.50;0.90;;;27.90;86.20;;;;;;4991395;28;20518;-77
2023/06/23 10:52:44;;;;;;;1.50;0.90;;;28.20;83.10;;;;;;4976939;28;21208;-77
2023/06/23 10:55:46;;;;;;;1.50;0.90;;;28.40;83.70;;;;;;4988652;28;21074;-77
2023/06/23 10:58:18;;;;;;;1.50;0.80;;;28.80;84.20;;;;;;4914897;28;20484;-76
2023/06/23 11:00:59;;;;;;;1.50;0.80;;;29.10;83.40;;;;;;4939626;28;20623;-77
2023/06/23 11:03:32;;;;;;;1.50;0.80;;;29.40;81.00;;;;;;4936911;28;20486;-77
2023/06/23 11:06:02;;;;;;;1.50;0.90;;;29.70;80.30;;;;;;4975934;28;20495;-76
2023/06/23 11:08:35;;;;;;;1.50;0.90;;;29.50;78.10;;;;;;4981970;28;20536;-77
2023/06/23 11:11:05;;;;;;;1.47;0.90;;;29.40;76.20;;;;;;4977486;28;20468;-77
2023/06/23 11:13:37;;;;;;;1.50;0.80;;;29.30;79.60;;;;;;4982660;28;20469;-77
2023/06/23 11:16:06;;;;;;;1.50;0.90;;;29.30;80.40;;;;;;4977450;28;20488;-77
2023/06/23 11:18:36;;;;;;;1.50;0.80;;;29.50;77.30;;;;;;4987276;28;20499;-76
2023/06/23 11:21:17;;;;;;;1.50;0.80;;;29.70;76.50;;;;;;4972854;28;20982;-77
2023/06/23 11:24:11;;;;;;;1.70;1.30;;;29.50;73.90;;;;;;4969870;28;20575;-77
2023/06/23 11:26:43;;;;;;;1.47;0.80;;;29.50;77.80;;;;;;4975404;28;20508;-77
2023/06/23 11:29:13;;;;;;;1.50;0.80;;;29.70;79.40;;;;;;4979080;28;20465;-77
2023/06/23 11:32:04;;;;;;;1.50;0.80;;;29.90;77.90;;;;;;4970679;28;21309;-78
2023/06/23 11:34:51;;;;;;;1.50;0.80;;;30.30;76.70;;;;;;4988183;28;20468;-77
2023/06/23 11:37:19;;;;;;;1.43;0.80;;;30.60;73.60;;;;;;4975895;28;20565;-78
2023/06/23 11:39:48;;;;;;;1.50;0.80;;;30.70;73.10;;;;;;4986125;28;20503;-77
2023/06/23 11:42:15;;;;;;;1.60;1.20;;;31.00;73.20;;;;;;4973755;28;20551;-77
2023/06/23 11:44:44;;;;;;;1.43;0.80;;;30.90;69.20;;;;;;4987279;28;20473;-77
2023/06/23 11:47:13;;;;;;;1.50;0.80;;;30.80;70.00;;;;;;4978061;28;20488;-77
2023/06/23 11:49:43;;;;;;;1.47;0.80;;;30.70;70.80;;;;;;4984663;28;20470;-77
2023/06/23 11:52:13;;;;;;;1.50;0.90;;;30.60;72.60;;;;;;4970075;28;20855;-78
2023/06/23 11:54:44;;;;;;;1.80;1.40;;;30.80;72.90;;;;;;4981915;28;20469;-78
2023/06/23 11:57:11;;;;;;;1.47;0.80;;;31.00;71.80;;;;;;4976252;28;20525;-78
2023/06/23 11:59:41;;;;;;;1.43;0.80;;;31.10;72.90;;;;;;4985235;28;20548;-77
2023/06/23 12:02:08;;;;;;;1.47;0.80;;;31.20;71.10;;;;;;4974428;28;20232;-78
2023/06/23 12:04:36;;;;;;;1.50;1.03;;;31.40;69.90;;;;;;4986149;28;20575;-77
2023/06/23 12:07:05;;;;;;;1.47;0.80;;;31.50;70.10;;;;;;4975038;28;20230;-78
2023/06/23 12:09:33;;;;;;;1.43;0.80;;;31.60;68.40;;;;;;4982063;28;20992;-77
2023/06/23 12:12:00;;;;;;;1.40;0.80;;;31.70;69.00;;;;;;4971104;28;20233;-78
2023/06/23 12:14:33;;;;;;;1.50;0.90;;;31.50;67.60;;;;;;4987471;28;20853;-78
2023/06/23 12:17:08;;;;;;;1.43;0.80;;;31.20;69.20;;;;;;4977377;28;20237;-78
2023/06/23 12:19:36;;;;;;;1.43;0.80;;;31.10;70.10;;;;;;4990017;28;20464;-78
2023/06/23 12:22:16;;;;;;;1.47;0.80;;;31.20;68.90;;;;;;4964804;28;20245;-79
2023/06/23 12:24:44;;;;;;;1.43;0.80;;;31.40;70.60;;;;;;4982461;28;20209;-78
2023/06/23 12:27:12;;;;;;;1.47;0.83;;;31.60;69.90;;;;;;4965829;28;20292;-77
2023/06/23 12:29:40;;;;;;;1.47;0.83;;;31.70;69.00;;;;;;4976547;28;20842;-78
2023/06/23 12:32:08;;;;;;;1.43;0.80;;;31.70;66.20;;;;;;4956704;28;20489;-77
2023/06/23 12:34:36;;;;;;;1.43;0.80;;;31.70;69.60;;;;;;4975674;28;20311;-77
2023/06/23 12:37:06;;;;;;;1.43;0.80;;;31.90;67.20;;;;;;4964946;28;20233;-78
2023/06/23 12:39:37;;;;;;;1.47;0.80;;;32.20;65.50;;;;;;4985869;28;20333;-78
2023/06/23 12:42:07;;;;;;;1.60;1.20;;;32.30;65.00;;;;;;4970946;28;20260;-77
2023/06/23 12:44:36;;;;;;;1.43;0.80;;;32.30;64.50;;;;;;4983116;28;20207;-77
2023/06/23 12:47:05;;;;;;;1.47;0.80;;;32.30;66.10;;;;;;4965675;28;20812;-77
2023/06/23 12:49:33;;;;;;;1.43;0.80;;;32.40;66.40;;;;;;4986332;28;20257;-78
2023/06/23 12:52:01;;;;;;;1.40;0.80;;;32.40;66.70;;;;;;4969000;28;20229;-78
2023/06/23 12:54:30;;;;;;;1.83;1.43;;;32.20;65.40;;;;;;4981320;28;20252;-77
2023/06/23 12:56:59;;;;;;;1.43;0.80;;;32.00;66.20;;;;;;4969836;28;20292;-77
2023/06/23 12:59:28;;;;;;;1.43;0.80;;;32.00;67.50;;;;;;4983833;28;20220;-77
2023/06/23 13:01:55;;;;;;;1.43;0.80;;;32.10;67.80;;;;;;4978328;28;20246;-77
2023/06/23 13:04:22;;;;;;;1.43;0.80;;;32.30;66.10;;;;;;4982389;28;20335;-77